Time;durP1;ratioP1;P1;durP2;ratioP2;P2;SDS_P1;SDS_P2;PMS_P1;PMS_P2;Temp;Humidity;BMP_temperature;BMP_pressure;BME280_temperature;BME280_humidity;BME280_pressure;Samples;Min_cycle;Max_cycle;Signal;HPM_P1;HPM_P2
2021/10/27 00:02:00;;;;;;;23.30;20.67;;;7.80;96.50;;;;;;5060497;28;20569;-69
2021/10/27 00:04:26;;;;;;;565.80;81.80;;;7.90;97.80;;;;;;5067023;28;20204;-69
2021/10/27 00:06:53;;;;;;;21.45;19.65;;;8.00;99.50;;;;;;5056331;28;20332;-70
2021/10/27 00:09:20;;;;;;;20.50;19.25;;;8.00;98.30;;;;;;5062524;28;20280;-69
2021/10/27 00:11:47;;;;;;;20.35;18.95;;;8.00;97.80;;;;;;5061569;28;20303;-69
2021/10/27 00:14:16;;;;;;;21.27;19.55;;;8.00;97.20;;;;;;5058567;28;20200;-69
2021/10/27 00:16:43;;;;;;;20.73;19.23;;;7.90;96.80;;;;;;5059549;28;20269;-69
2021/10/27 00:19:10;;;;;;;20.52;19.20;;;7.90;97.00;;;;;;5059577;28;20195;-69
2021/10/27 00:21:37;;;;;;;20.70;19.40;;;7.90;97.00;;;;;;5058825;28;20696;-69
2021/10/27 00:24:04;;;;;;;19.27;18.08;;;7.90;96.70;;;;;;5065515;28;20331;-69
2021/10/27 00:26:31;;;;;;;19.50;18.30;;;7.90;96.60;;;;;;5068827;28;20227;-71
2021/10/27 00:28:58;;;;;;;19.90;18.67;;;7.90;96.50;;;;;;5069236;28;20209;-71
2021/10/27 00:31:26;;;;;;;20.85;19.55;;;7.90;96.30;;;;;;5061444;28;20218;-71
2021/10/27 00:33:53;;;;;;;19.40;18.10;;;7.90;96.30;;;;;;5065338;28;20206;-71
2021/10/27 00:36:20;;;;;;;20.55;19.05;;;7.90;96.80;;;;;;5065315;28;20535;-71
2021/10/27 00:38:48;;;;;;;189.90;34.35;;;7.90;97.50;;;;;;5062118;28;20195;-72
2021/10/27 00:41:15;;;;;;;20.15;18.75;;;8.00;99.90;;;;;;5069780;28;20216;-71
2021/10/27 00:43:42;;;;;;;19.80;18.40;;;8.00;98.30;;;;;;5064766;28;20629;-72
2021/10/27 00:46:19;;;;;;;20.02;18.75;;;8.00;97.40;;;;;;5064942;28;20196;-71
2021/10/27 00:48:48;;;;;;;20.27;18.98;;;8.00;96.90;;;;;;5068126;28;20199;-71
2021/10/27 00:51:16;;;;;;;20.30;18.98;;;8.00;96.60;;;;;;5069332;28;20219;-71
2021/10/27 00:53:44;;;;;;;21.83;19.67;;;8.00;96.40;;;;;;5069973;28;20298;-71
2021/10/27 00:56:12;;;;;;;22.42;20.73;;;8.00;96.20;;;;;;5066205;28;20203;-71
2021/10/27 00:58:39;;;;;;;20.10;18.70;;;8.00;96.30;;;;;;5064908;28;20222;-69
2021/10/27 01:01:07;;;;;;;20.80;19.40;;;7.90;96.40;;;;;;5061098;28;20200;-69
2021/10/27 01:03:36;;;;;;;19.77;18.27;;;7.90;96.20;;;;;;5063565;28;20200;-69
2021/10/27 01:06:05;;;;;;;20.98;19.50;;;8.00;96.20;;;;;;5063332;28;20661;-70
2021/10/27 01:08:33;;;;;;;20.60;19.30;;;7.90;96.00;;;;;;5066935;28;20206;-69
2021/10/27 01:11:00;;;;;;;21.33;19.10;;;7.90;96.00;;;;;;5062961;28;20216;-69
2021/10/27 01:13:27;;;;;;;22.08;20.67;;;7.90;96.50;;;;;;5063770;28;20550;-69
2021/10/27 01:15:54;;;;;;;21.00;19.42;;;7.90;97.00;;;;;;5062388;28;20214;-71
2021/10/27 01:18:21;;;;;;;20.38;18.88;;;7.90;97.10;;;;;;5070986;28;20222;-72
2021/10/27 01:20:50;;;;;;;21.67;20.05;;;7.90;96.60;;;;;;5066799;28;20208;-71
2021/10/27 01:23:16;;;;;;;21.73;20.23;;;7.90;96.50;;;;;;5072628;28;20215;-71
2021/10/27 01:25:43;;;;;;;21.50;20.00;;;7.90;96.20;;;;;;5063501;28;20214;-71
2021/10/27 01:28:10;;;;;;;20.23;18.83;;;7.90;96.40;;;;;;5065755;28;20303;-71
2021/10/27 01:30:37;;;;;;;22.05;20.75;;;7.90;96.80;;;;;;5067466;28;20219;-71
2021/10/27 01:33:05;;;;;;;21.85;20.27;;;7.90;96.50;;;;;;5075624;28;20215;-73
2021/10/27 01:35:32;;;;;;;22.25;20.45;;;7.90;96.40;;;;;;5066688;28;20196;-70
2021/10/27 01:38:00;;;;;;;22.30;20.77;;;7.90;96.60;;;;;;5072449;28;20315;-71
2021/10/27 01:40:27;;;;;;;21.40;19.95;;;7.80;96.60;;;;;;5060635;28;20257;-71
2021/10/27 01:42:56;;;;;;;21.90;20.33;;;7.80;96.70;;;;;;5068198;28;20219;-71
2021/10/27 01:45:28;;;;;;;21.52;20.17;;;7.80;96.70;;;;;;5071056;28;20231;-71
2021/10/27 01:47:55;;;;;;;20.98;19.42;;;7.80;97.60;;;;;;5067335;28;20200;-71
2021/10/27 01:50:22;;;;;;;21.05;19.70;;;7.80;97.60;;;;;;5063061;28;20262;-71
2021/10/27 01:52:49;;;;;;;21.88;20.27;;;7.80;97.10;;;;;;5063742;28;20755;-71
2021/10/27 01:55:17;;;;;;;21.50;19.90;;;7.80;96.20;;;;;;5073586;28;20192;-71
2021/10/27 01:57:44;;;;;;;22.02;20.42;;;7.60;96.10;;;;;;5070370;28;20234;-71
2021/10/27 02:00:12;;;;;;;21.73;20.13;;;7.60;96.30;;;;;;5067870;28;20200;-72
2021/10/27 02:02:39;;;;;;;240.85;42.80;;;7.60;96.20;;;;;;5063672;28;20224;-71
2021/10/27 02:05:07;;;;;;;24.35;22.45;;;7.50;98.00;;;;;;5063677;28;20200;-71
2021/10/27 02:07:34;;;;;;;21.80;20.40;;;7.50;98.20;;;;;;5066666;28;20208;-72
2021/10/27 02:10:03;;;;;;;22.65;21.17;;;7.60;97.40;;;;;;5065248;28;20215;-71
2021/10/27 02:12:31;;;;;;;21.52;20.23;;;7.60;96.70;;;;;;5063186;28;20215;-71
2021/10/27 02:14:58;;;;;;;21.05;19.75;;;7.50;96.20;;;;;;5066965;28;20212;-71
2021/10/27 02:17:25;;;;;;;21.75;20.45;;;7.40;96.10;;;;;;5065420;28;20314;-72
2021/10/27 02:19:52;;;;;;;23.00;21.42;;;7.40;96.00;;;;;;5066727;28;20238;-70
2021/10/27 02:22:19;;;;;;;22.33;20.92;;;7.30;96.50;;;;;;5063480;28;20221;-71
2021/10/27 02:24:46;;;;;;;21.23;20.02;;;7.20;95.70;;;;;;5066740;28;20283;-71
2021/10/27 02:27:13;;;;;;;23.13;21.70;;;7.20;95.50;;;;;;5066606;28;20250;-71
2021/10/27 02:29:41;;;;;;;22.13;20.65;;;7.10;95.20;;;;;;5064818;28;20223;-71
2021/10/27 02:32:08;;;;;;;22.88;21.38;;;7.10;95.30;;;;;;5062019;28;20215;-71
2021/10/27 02:34:35;;;;;;;22.00;20.52;;;7.00;95.30;;;;;;5066889;28;20221;-70
2021/10/27 02:37:03;;;;;;;23.95;21.95;;;7.00;95.60;;;;;;5067160;28;20196;-71
2021/10/27 02:39:30;;;;;;;23.42;21.92;;;7.00;95.60;;;;;;5066482;28;20278;-71
2021/10/27 02:41:57;;;;;;;22.23;20.52;;;7.00;95.30;;;;;;5063032;28;20226;-71
2021/10/27 02:44:25;;;;;;;21.17;19.67;;;7.00;95.40;;;;;;5063256;28;20203;-70
2021/10/27 02:46:53;;;;;;;22.30;20.80;;;7.00;95.10;;;;;;5061253;28;20243;-71
2021/10/27 02:49:20;;;;;;;23.02;21.42;;;6.90;95.10;;;;;;5064521;28;20814;-71
2021/10/27 02:51:47;;;;;;;21.83;20.42;;;6.90;95.20;;;;;;5062835;28;20316;-72
2021/10/27 02:54:14;;;;;;;44.08;22.70;;;6.90;95.30;;;;;;5078426;28;20200;-71
2021/10/27 02:56:41;;;;;;;21.45;20.05;;;6.80;97.20;;;;;;5072849;28;20188;-70
2021/10/27 02:59:07;;;;;;;24.45;22.90;;;6.90;96.50;;;;;;5083283;28;20215;-71
2021/10/27 03:01:35;;;;;;;22.88;21.38;;;6.90;96.70;;;;;;5063379;28;20216;-71
2021/10/27 03:04:03;;;;;;;22.98;21.55;;;6.90;96.40;;;;;;5060749;28;20208;-72
2021/10/27 03:06:30;;;;;;;23.13;21.58;;;6.90;96.10;;;;;;5059111;28;20198;-72
2021/10/27 03:08:56;;;;;;;24.05;22.42;;;6.90;95.90;;;;;;5073429;28;20290;-69
2021/10/27 03:11:23;;;;;;;26.52;24.98;;;6.90;95.80;;;;;;5064085;28;20221;-69
2021/10/27 03:13:50;;;;;;;22.88;21.27;;;6.90;95.60;;;;;;5066241;28;20203;-69
2021/10/27 03:16:18;;;;;;;987.20;139.02;;;6.90;96.40;;;;;;5065634;28;20198;-69
2021/10/27 03:18:45;;;;;;;23.30;21.80;;;6.90;98.20;;;;;;5063998;28;20222;-69
2021/10/27 03:21:14;;;;;;;24.10;22.40;;;6.90;99.50;;;;;;5063043;28;20227;-69
2021/10/27 03:23:41;;;;;;;24.50;22.88;;;6.90;98.20;;;;;;5066138;28;20192;-69
2021/10/27 03:26:08;;;;;;;23.60;21.90;;;7.00;97.20;;;;;;5062485;28;20199;-71
2021/10/27 03:28:35;;;;;;;23.27;21.85;;;7.00;96.30;;;;;;5078167;28;20202;-71
2021/10/27 03:31:01;;;;;;;24.50;22.80;;;6.90;96.20;;;;;;5066290;28;20196;-71
2021/10/27 03:33:28;;;;;;;24.80;23.15;;;6.80;96.30;;;;;;5067690;28;20681;-71
2021/10/27 03:35:55;;;;;;;22.92;21.35;;;6.80;96.80;;;;;;5060579;28;20206;-71
2021/10/27 03:38:23;;;;;;;1999.90;542.72;;;6.90;97.00;;;;;;5070756;28;20208;-71
2021/10/27 03:40:50;;;;;;;24.33;22.73;;;6.90;99.90;;;;;;5068365;28;20218;-71
2021/10/27 03:43:19;;;;;;;25.27;23.58;;;6.90;99.70;;;;;;5068894;28;20192;-71
2021/10/27 03:45:46;;;;;;;24.58;22.83;;;6.90;98.60;;;;;;5073338;28;20200;-71
2021/10/27 03:48:12;;;;;;;26.67;24.90;;;6.90;98.40;;;;;;5065189;28;20196;-71
2021/10/27 03:50:40;;;;;;;24.63;22.30;;;6.90;97.70;;;;;;5066162;28;20286;-71
2021/10/27 03:53:07;;;;;;;25.85;24.05;;;6.80;97.70;;;;;;5065387;28;20251;-71
2021/10/27 03:55:36;;;;;;;24.25;22.55;;;6.80;99.10;;;;;;5066324;28;20235;-71
2021/10/27 03:58:03;;;;;;;25.95;24.02;;;6.80;98.10;;;;;;5070080;28;20215;-71
2021/10/27 04:00:30;;;;;;;24.08;22.38;;;6.90;97.50;;;;;;5072885;28;20192;-71
2021/10/27 04:02:57;;;;;;;23.17;21.55;;;6.80;97.30;;;;;;5065583;28;20686;-71
2021/10/27 04:05:24;;;;;;;25.38;23.35;;;6.80;96.80;;;;;;5063867;28;20203;-71
2021/10/27 04:07:51;;;;;;;24.75;22.75;;;6.80;96.20;;;;;;5063558;28;20210;-71
2021/10/27 04:10:18;;;;;;;24.15;22.42;;;6.70;96.50;;;;;;5068515;28;20192;-70
2021/10/27 04:12:46;;;;;;;957.33;128.48;;;6.70;97.90;;;;;;5060147;28;20230;-70
2021/10/27 04:15:13;;;;;;;23.80;22.08;;;6.70;99.90;;;;;;5067972;28;20200;-71
2021/10/27 04:17:41;;;;;;;24.25;22.45;;;6.80;99.90;;;;;;5067083;28;20219;-71
2021/10/27 04:20:10;;;;;;;25.83;23.58;;;6.80;99.90;;;;;;5064048;28;20192;-72
2021/10/27 04:22:40;;;;;;;25.38;23.50;;;6.80;99.40;;;;;;5063275;28;20208;-71
2021/10/27 04:25:09;;;;;;;26.30;24.20;;;6.80;98.60;;;;;;5074610;28;20992;-71
2021/10/27 04:27:36;;;;;;;25.35;23.52;;;6.80;98.00;;;;;;5063735;28;20200;-71
2021/10/27 04:30:06;;;;;;;25.52;23.83;;;6.70;98.00;;;;;;5066916;28;20216;-71
2021/10/27 04:32:33;;;;;;;157.45;39.38;;;6.70;97.80;;;;;;5062760;28;20303;-72
2021/10/27 04:35:00;;;;;;;26.67;24.63;;;6.70;97.80;;;;;;5070186;28;20232;-70
2021/10/27 04:37:27;;;;;;;27.77;25.67;;;6.70;97.90;;;;;;5064566;28;20462;-69
2021/10/27 04:39:54;;;;;;;26.38;24.23;;;6.70;97.80;;;;;;5073909;28;20555;-69
2021/10/27 04:42:21;;;;;;;28.88;26.75;;;6.80;97.60;;;;;;5065192;28;20230;-69
2021/10/27 04:44:48;;;;;;;287.88;54.35;;;6.80;97.30;;;;;;5057077;28;20210;-69
2021/10/27 04:47:16;;;;;;;29.17;26.98;;;6.70;96.90;;;;;;5064125;28;20214;-70
2021/10/27 04:49:43;;;;;;;28.63;26.05;;;6.70;99.10;;;;;;5067308;28;20194;-71
2021/10/27 04:52:10;;;;;;;26.42;24.40;;;6.70;99.90;;;;;;5063431;28;20731;-71
2021/10/27 04:54:37;;;;;;;27.25;25.20;;;6.80;99.90;;;;;;5068492;28;20188;-70
2021/10/27 04:57:04;;;;;;;27.85;25.75;;;6.80;99.00;;;;;;5064912;28;20196;-70
2021/10/27 04:59:39;;;;;;;26.85;25.00;;;6.80;98.60;;;;;;5066043;28;20514;-70
2021/10/27 05:02:06;;;;;;;29.23;27.13;;;6.80;98.40;;;;;;5061437;28;20211;-68
2021/10/27 05:04:35;;;;;;;26.60;24.55;;;6.80;98.10;;;;;;5059155;28;20196;-71
2021/10/27 05:07:03;;;;;;;28.27;26.00;;;6.80;98.10;;;;;;5053603;28;20228;-70
2021/10/27 05:09:30;;;;;;;33.08;28.33;;;6.90;98.20;;;;;;5067809;28;20684;-69
2021/10/27 05:11:57;;;;;;;26.80;25.00;;;6.90;97.70;;;;;;5064202;28;20247;-69
2021/10/27 05:14:24;;;;;;;26.70;24.33;;;6.90;97.50;;;;;;5067058;28;20960;-70
2021/10/27 05:16:51;;;;;;;28.63;26.60;;;6.90;97.10;;;;;;5071886;28;20208;-69
2021/10/27 05:19:18;;;;;;;28.30;26.10;;;6.90;97.00;;;;;;5061734;28;20220;-69
2021/10/27 05:21:47;;;;;;;28.55;26.52;;;7.00;96.60;;;;;;5065862;28;20739;-69
2021/10/27 05:24:14;;;;;;;29.58;27.17;;;6.90;96.50;;;;;;5066802;28;20282;-72
2021/10/27 05:26:41;;;;;;;27.08;25.10;;;7.00;97.20;;;;;;5068096;28;20206;-70
2021/10/27 05:29:08;;;;;;;27.42;25.25;;;7.00;97.20;;;;;;5070348;28;20202;-70
2021/10/27 05:31:35;;;;;;;30.30;27.70;;;7.10;96.80;;;;;;5062284;28;20471;-70
2021/10/27 05:34:03;;;;;;;29.25;27.25;;;7.10;96.70;;;;;;5064115;28;20286;-70
2021/10/27 05:36:31;;;;;;;27.60;25.70;;;7.10;96.30;;;;;;5065141;28;20207;-69
2021/10/27 05:38:59;;;;;;;27.27;25.50;;;7.10;96.20;;;;;;5072905;28;20777;-69
2021/10/27 05:41:26;;;;;;;29.15;27.05;;;7.00;96.10;;;;;;5062686;28;20216;-69
2021/10/27 05:43:54;;;;;;;31.33;28.80;;;7.10;96.10;;;;;;5061822;28;20209;-69
2021/10/27 05:46:22;;;;;;;28.58;26.27;;;7.10;96.00;;;;;;5068593;28;20227;-69
2021/10/27 05:48:58;;;;;;;32.08;29.88;;;7.20;95.90;;;;;;5070142;28;20840;-70
2021/10/27 05:51:36;;;;;;;27.10;25.10;;;7.30;95.60;;;;;;5069531;28;20215;-69
2021/10/27 05:56:49;;;;;;;27.02;25.23;;;7.40;95.40;;;;;;5069183;28;20219;-69
2021/10/27 05:59:16;;;;;;;28.90;26.55;;;7.40;94.40;;;;;;5069186;28;20234;-69
2021/10/27 06:01:43;;;;;;;29.58;27.48;;;7.40;94.50;;;;;;5067420;28;20214;-70
2021/10/27 06:04:10;;;;;;;28.00;25.98;;;7.30;94.30;;;;;;5065315;28;20207;-71
2021/10/27 06:06:38;;;;;;;30.98;28.50;;;7.40;94.40;;;;;;5063898;28;20191;-71
2021/10/27 06:09:06;;;;;;;29.23;27.13;;;7.40;94.50;;;;;;5058392;28;20287;-71
2021/10/27 06:11:37;;;;;;;30.27;27.98;;;7.40;94.50;;;;;;5067540;28;20230;-70
2021/10/27 06:14:07;;;;;;;27.80;25.85;;;7.30;95.30;;;;;;5069223;28;20412;-70
2021/10/27 06:16:34;;;;;;;29.02;26.60;;;7.40;94.80;;;;;;5068764;28;20206;-70
2021/10/27 06:19:01;;;;;;;27.65;25.63;;;7.40;94.30;;;;;;5070161;28;20220;-71
2021/10/27 06:21:28;;;;;;;32.67;29.42;;;7.50;94.30;;;;;;5061384;28;20262;-70
2021/10/27 06:23:55;;;;;;;27.17;25.17;;;7.60;94.20;;;;;;5060670;28;20530;-70
2021/10/27 06:26:24;;;;;;;26.90;24.98;;;7.60;94.00;;;;;;5073464;28;20475;-70
2021/10/27 06:29:01;;;;;;;27.90;25.45;;;7.70;93.90;;;;;;5081670;28;20215;-71
2021/10/27 06:31:32;;;;;;;27.02;24.90;;;7.80;93.70;;;;;;5071021;28;20219;-70
2021/10/27 06:34:06;;;;;;;26.20;24.50;;;7.90;93.30;;;;;;5060581;28;20201;-71
2021/10/27 06:36:40;;;;;;;27.95;26.05;;;8.00;93.10;;;;;;5062870;28;20196;-70
2021/10/27 06:45:54;;;;;;;27.48;25.27;;;8.10;92.70;;;;;;5069538;28;20223;-71
2021/10/27 06:47:55;;;;;;;29.33;27.42;;;8.30;91.30;;;;;;5067803;28;20563;-73
2021/10/27 06:50:22;;;;;;;25.80;24.10;;;8.30;91.40;;;;;;5068883;28;20192;-70
2021/10/27 06:52:48;;;;;;;27.17;25.08;;;8.40;91.50;;;;;;5068075;28;20226;-71
2021/10/27 06:55:16;;;;;;;25.70;24.00;;;8.40;92.10;;;;;;5071339;28;20192;-70
2021/10/27 06:57:44;;;;;;;28.35;26.25;;;8.50;91.60;;;;;;5067232;28;20204;-70
2021/10/27 07:00:18;;;;;;;26.20;24.27;;;8.70;91.20;;;;;;5070196;28;20596;-70
2021/10/27 07:05:45;;;;;;;26.85;25.15;;;8.90;90.70;;;;;;5066034;28;20285;-70
2021/10/27 07:16:26;;;;;;;29.45;27.48;;;9.20;89.60;;;;;;5067449;28;20211;-70
2021/10/27 07:18:53;;;;;;;27.88;25.63;;;9.40;89.10;;;;;;5076451;28;20253;-70
2021/10/27 07:21:21;;;;;;;27.27;25.48;;;9.50;88.50;;;;;;5072186;28;20243;-69
2021/10/27 07:23:48;;;;;;;28.42;26.45;;;9.60;88.60;;;;;;5064926;28;20200;-70
2021/10/27 07:26:16;;;;;;;28.60;26.60;;;9.60;88.20;;;;;;5059640;28;20218;-70
2021/10/27 07:28:47;;;;;;;29.13;27.23;;;9.70;88.10;;;;;;5058363;28;20836;-71
2021/10/27 07:31:16;;;;;;;30.00;27.80;;;9.80;87.40;;;;;;5059344;28;20479;-71
2021/10/27 07:33:48;;;;;;;28.77;26.60;;;9.80;87.50;;;;;;5059924;28;20537;-70
2021/10/27 07:36:27;;;;;;;26.80;25.00;;;9.80;87.30;;;;;;5064027;28;20968;-69
2021/10/27 07:41:39;;;;;;;28.90;27.00;;;9.90;87.80;;;;;;5057655;28;20461;-72
2021/10/27 07:44:14;;;;;;;27.53;25.60;;;10.00;87.70;;;;;;5066209;28;20477;-72
2021/10/27 07:46:42;;;;;;;29.83;27.53;;;10.20;87.00;;;;;;5059780;28;20664;-70
2021/10/27 07:49:09;;;;;;;29.23;27.23;;;10.10;87.20;;;;;;5065378;28;20485;-70
2021/10/27 07:51:36;;;;;;;29.70;27.60;;;10.20;87.20;;;;;;5065604;28;20486;-70
2021/10/27 07:54:03;;;;;;;30.07;28.10;;;10.20;87.30;;;;;;5062265;28;20490;-69
2021/10/27 07:56:32;;;;;;;29.27;27.17;;;10.30;87.40;;;;;;5060515;28;20462;-70
2021/10/27 07:59:00;;;;;;;28.83;26.90;;;10.40;87.30;;;;;;5080385;28;20551;-70
2021/10/27 08:01:29;;;;;;;30.27;28.07;;;10.50;87.00;;;;;;5066395;28;20478;-69
2021/10/27 08:03:56;;;;;;;29.70;27.60;;;10.50;86.70;;;;;;5051731;28;20462;-69
2021/10/27 08:06:23;;;;;;;29.27;27.27;;;10.60;86.70;;;;;;5057458;28;20454;-69
2021/10/27 08:08:51;;;;;;;29.40;27.40;;;10.70;86.30;;;;;;5053829;28;20462;-70
2021/10/27 08:11:18;;;;;;;27.90;26.20;;;10.80;86.40;;;;;;5063424;28;21074;-70
2021/10/27 08:13:45;;;;;;;28.37;26.37;;;10.90;86.10;;;;;;5056550;28;20465;-71
2021/10/27 08:16:12;;;;;;;30.47;28.30;;;11.00;85.90;;;;;;5062398;28;20491;-71
2021/10/27 08:18:40;;;;;;;28.10;25.97;;;11.10;85.60;;;;;;5068908;28;20454;-72
2021/10/27 08:21:08;;;;;;;30.10;27.70;;;11.20;85.60;;;;;;5063222;28;20538;-70
2021/10/27 08:23:39;;;;;;;28.63;26.53;;;11.40;85.30;;;;;;5050351;28;20455;-71
2021/10/27 08:26:09;;;;;;;30.43;28.43;;;11.40;84.80;;;;;;5059062;28;20504;-73
2021/10/27 08:28:40;;;;;;;28.67;26.67;;;11.50;84.80;;;;;;5057121;28;20447;-71
2021/10/27 08:31:14;;;;;;;30.37;28.03;;;11.60;84.60;;;;;;5059423;28;20539;-71
2021/10/27 08:34:02;;;;;;;29.40;27.40;;;11.70;84.30;;;;;;5054420;28;20912;-70
2021/10/27 08:36:29;;;;;;;31.83;29.23;;;11.80;84.20;;;;;;5053962;28;21263;-72
2021/10/27 08:38:56;;;;;;;31.53;29.37;;;11.80;84.00;;;;;;5053534;28;20541;-71
2021/10/27 08:41:25;;;;;;;30.57;28.03;;;11.80;84.10;;;;;;5059617;28;20472;-69
2021/10/27 08:43:52;;;;;;;29.60;27.70;;;11.80;84.20;;;;;;5067611;28;20478;-69
2021/10/27 08:46:19;;;;;;;31.80;29.60;;;12.00;84.10;;;;;;5052860;28;20545;-69
2021/10/27 08:48:53;;;;;;;30.57;28.43;;;12.10;83.80;;;;;;5064895;28;20470;-69
2021/10/27 08:51:20;;;;;;;28.80;26.70;;;12.30;83.60;;;;;;5049049;28;21046;-69
2021/10/27 08:53:48;;;;;;;29.00;27.10;;;12.30;83.20;;;;;;5057046;28;21088;-69
2021/10/27 08:56:15;;;;;;;28.67;26.53;;;12.40;83.00;;;;;;5059035;28;20828;-69
2021/10/27 08:58:45;;;;;;;28.77;26.97;;;12.40;83.10;;;;;;5068035;28;20552;-69
2021/10/27 09:01:19;;;;;;;29.80;27.70;;;12.40;83.00;;;;;;5062651;28;20478;-70
2021/10/27 09:04:09;;;;;;;29.63;27.30;;;12.40;83.40;;;;;;5061203;28;20481;-76
2021/10/27 09:06:41;;;;;;;30.07;28.00;;;12.50;83.10;;;;;;5069530;28;20446;-72
2021/10/27 09:35:05;;;;;;;33.67;31.17;;;13.50;76.90;;;;;;5124774;27;20459;-70
2021/10/27 10:05:25;;;;;;;33.73;31.30;;;14.20;75.40;;;;;;5120655;27;20467;-71
2021/10/27 10:07:52;;;;;;;33.60;31.33;;;14.20;75.60;;;;;;5132464;27;20537;-70
2021/10/27 10:10:19;;;;;;;33.60;31.27;;;14.20;75.10;;;;;;5122563;27;20568;-70
2021/10/27 10:12:48;;;;;;;32.73;30.53;;;14.30;75.30;;;;;;5118429;27;20510;-70
2021/10/27 10:15:18;;;;;;;32.00;29.83;;;14.40;75.70;;;;;;5121646;27;20456;-70
2021/10/27 10:17:47;;;;;;;33.90;31.60;;;14.50;75.20;;;;;;5105570;27;20535;-71
2021/10/27 10:20:16;;;;;;;31.50;29.30;;;14.70;75.30;;;;;;5122637;27;20977;-72
2021/10/27 10:22:44;;;;;;;30.50;28.60;;;14.80;75.30;;;;;;5118993;27;20471;-69
2021/10/27 10:25:28;;;;;;;29.80;27.70;;;14.90;74.80;;;;;;5109349;28;20476;-67
2021/10/27 10:27:57;;;;;;;28.20;26.40;;;15.10;74.40;;;;;;5106689;27;20451;-68
2021/10/27 10:30:28;;;;;;;29.87;27.87;;;15.10;74.00;;;;;;5121193;27;20480;-68
2021/10/27 10:33:05;;;;;;;29.47;27.40;;;15.10;73.60;;;;;;5114918;27;20491;-68
2021/10/27 10:35:47;;;;;;;26.93;25.17;;;15.30;73.60;;;;;;5110860;28;20456;-68
2021/10/27 11:23:30;;;;;;;32.73;30.90;;;16.20;70.80;;;;;;5109251;27;20549;-72
2021/10/27 11:26:13;;;;;;;31.07;28.73;;;16.40;70.30;;;;;;5106824;27;20539;-73
2021/10/27 11:39:46;;;;;;;28.80;27.13;;;16.60;68.30;;;;;;5101473;28;20462;-70
2021/10/27 11:42:34;;;;;;;26.70;25.10;;;16.60;68.00;;;;;;5115733;27;20468;-73
2021/10/27 11:45:21;;;;;;;29.00;27.30;;;16.70;68.20;;;;;;5106979;27;20499;-71
2021/10/27 11:47:54;;;;;;;27.40;25.90;;;16.80;67.10;;;;;;5110117;27;20452;-72
2021/10/27 11:50:23;;;;;;;26.70;24.70;;;16.60;66.70;;;;;;5111430;28;20487;-71
2021/10/27 11:52:52;;;;;;;28.43;26.57;;;16.70;66.10;;;;;;5107746;28;20480;-75
2021/10/27 11:55:22;;;;;;;26.07;24.77;;;16.70;65.60;;;;;;5108879;27;20522;-73
2021/10/27 11:57:54;;;;;;;28.13;26.40;;;16.80;65.30;;;;;;5115000;27;20456;-73
2021/10/27 12:00:29;;;;;;;27.93;26.20;;;16.80;64.60;;;;;;5109909;28;20462;-74
2021/10/27 12:03:01;;;;;;;29.07;27.27;;;16.90;65.00;;;;;;5108934;27;20488;-72
2021/10/27 12:05:35;;;;;;;28.03;26.33;;;17.00;66.40;;;;;;5097724;28;20457;-72
2021/10/27 12:08:15;;;;;;;26.13;24.63;;;17.10;65.10;;;;;;5106098;27;20456;-72
2021/10/27 12:10:57;;;;;;;27.23;25.73;;;17.20;64.40;;;;;;5113324;27;20808;-69
2021/10/27 12:13:40;;;;;;;27.43;25.93;;;17.30;63.30;;;;;;5109057;27;20455;-69
2021/10/27 12:16:28;;;;;;;28.43;26.73;;;17.30;62.80;;;;;;5108430;27;20469;-71
2021/10/27 12:18:55;;;;;;;27.70;26.20;;;17.40;62.80;;;;;;5114325;27;20560;-72
2021/10/27 12:21:24;;;;;;;27.67;25.97;;;17.40;62.90;;;;;;5111382;27;20467;-72
2021/10/27 12:23:51;;;;;;;26.80;25.30;;;17.50;63.30;;;;;;5108421;28;20517;-71
2021/10/27 12:26:21;;;;;;;28.30;26.57;;;17.50;63.10;;;;;;5107217;27;20455;-73
2021/10/27 12:28:51;;;;;;;28.00;26.30;;;17.50;62.50;;;;;;5105855;27;20557;-73
2021/10/27 12:31:20;;;;;;;29.27;27.30;;;17.30;62.60;;;;;;5107582;27;20471;-72
2021/10/27 12:33:48;;;;;;;31.43;29.33;;;17.30;63.00;;;;;;5105856;28;20535;-73
2021/10/27 12:36:25;;;;;;;28.80;27.10;;;17.10;63.60;;;;;;5105201;27;21116;-73
2021/10/27 12:39:14;;;;;;;27.63;26.03;;;17.30;63.60;;;;;;5096740;27;20476;-72
2021/10/27 12:41:45;;;;;;;29.80;27.80;;;17.40;63.00;;;;;;5106514;27;21012;-71
2021/10/27 12:44:24;;;;;;;26.97;25.43;;;17.40;63.40;;;;;;5102091;28;20530;-70
2021/10/27 12:47:12;;;;;;;28.83;27.23;;;17.50;63.40;;;;;;5108552;27;20463;-71
2021/10/27 12:49:39;;;;;;;28.73;27.13;;;17.60;63.30;;;;;;5102314;27;21026;-70
2021/10/27 12:52:27;;;;;;;28.87;27.17;;;17.60;63.30;;;;;;5106947;27;20502;-70
2021/10/27 12:55:20;;;;;;;31.03;29.27;;;17.60;62.90;;;;;;5087240;27;20539;-69
2021/10/27 12:57:59;;;;;;;26.90;25.30;;;17.70;62.10;;;;;;5092534;28;20456;-70
2021/10/27 13:00:32;;;;;;;27.10;25.67;;;17.70;61.90;;;;;;5104618;27;20467;-69
2021/10/27 13:03:22;;;;;;;26.70;25.10;;;17.70;63.40;;;;;;5107026;27;20570;-72
2021/10/27 13:05:54;;;;;;;28.27;26.40;;;17.70;62.80;;;;;;5104566;28;20464;-70
2021/10/27 13:08:49;;;;;;;26.90;25.40;;;17.60;62.90;;;;;;5104184;28;21121;-70
2021/10/27 13:14:23;;;;;;;26.17;24.57;;;17.30;62.70;;;;;;5127802;27;20561;-71
2021/10/27 13:22:37;;;;;;;26.37;24.70;;;17.50;63.30;;;;;;5044536;28;20560;-72
2021/10/27 13:30:44;;;;;;;26.13;24.73;;;17.60;61.70;;;;;;5145534;27;20620;-72
2021/10/27 13:33:12;;;;;;;25.00;23.30;;;17.60;61.30;;;;;;5143457;27;20510;-73
2021/10/27 13:35:39;;;;;;;26.90;25.10;;;17.60;61.80;;;;;;5138521;27;20454;-73
2021/10/27 13:38:07;;;;;;;25.23;23.73;;;17.70;62.10;;;;;;5144156;27;20542;-72
2021/10/27 13:40:36;;;;;;;26.10;24.70;;;17.60;61.60;;;;;;5143658;27;20974;-73
2021/10/27 13:43:06;;;;;;;26.57;24.60;;;17.60;62.00;;;;;;5142478;27;20466;-72
2021/10/27 13:45:38;;;;;;;25.50;23.90;;;17.50;61.80;;;;;;5138433;27;20446;-72
2021/10/27 13:48:11;;;;;;;26.47;24.77;;;17.40;62.00;;;;;;5150940;27;20455;-70
2021/10/27 13:59:13;;;;;;;28.40;26.70;;;17.20;64.00;;;;;;5145324;27;20861;-70
2021/10/27 14:07:18;;;;;;;26.67;25.07;;;17.10;63.50;;;;;;5144157;27;20494;-70
2021/10/27 14:09:49;;;;;;;28.27;26.57;;;17.10;63.20;;;;;;5144634;27;20536;-70
2021/10/27 14:12:23;;;;;;;26.97;25.17;;;17.10;63.40;;;;;;5150544;27;20482;-70
2021/10/27 14:15:07;;;;;;;27.70;25.90;;;17.20;63.00;;;;;;5145484;27;20451;-71
2021/10/27 14:17:50;;;;;;;26.20;24.70;;;17.30;63.10;;;;;;5156499;27;20467;-70
2021/10/27 14:39:55;;;;;;;26.90;25.37;;;17.30;63.40;;;;;;5131253;27;20517;-71
2021/10/27 14:50:22;;;;;;;28.77;26.90;;;17.20;63.30;;;;;;5127630;27;20484;-69
2021/10/27 14:58:43;;;;;;;27.30;25.60;;;17.30;62.90;;;;;;5122592;27;20750;-72
2021/10/27 15:21:37;;;;;;;26.23;24.43;;;16.90;63.90;;;;;;5117978;27;20466;-71
2021/10/27 15:24:15;;;;;;;25.10;23.60;;;16.70;63.60;;;;;;5127837;27;20448;-73
2021/10/27 15:35:01;;;;;;;26.00;24.50;;;16.50;65.80;;;;;;5121303;27;21062;-71
2021/10/27 15:51:14;;;;;;;25.53;23.93;;;16.00;67.10;;;;;;5131140;27;20585;-72
2021/10/27 15:53:41;;;;;;;26.40;24.60;;;15.90;67.60;;;;;;5130102;27;20471;-71
2021/10/27 15:56:09;;;;;;;26.67;24.77;;;15.70;68.50;;;;;;5127718;27;20455;-72
2021/10/27 15:58:36;;;;;;;26.40;24.70;;;15.60;70.40;;;;;;5129952;27;20448;-71
2021/10/27 16:01:03;;;;;;;26.90;25.23;;;15.40;71.50;;;;;;5129377;27;20893;-72
2021/10/27 16:03:30;;;;;;;26.20;24.40;;;15.30;72.40;;;;;;5123385;27;20459;-75
2021/10/27 16:05:58;;;;;;;25.87;24.17;;;15.10;72.80;;;;;;5126431;27;21067;-71
2021/10/27 16:08:28;;;;;;;25.03;23.43;;;14.90;73.90;;;;;;5137503;27;20497;-71
2021/10/27 16:10:55;;;;;;;26.10;24.37;;;14.60;74.60;;;;;;5128039;27;20460;-72
2021/10/27 16:13:24;;;;;;;25.27;22.90;;;14.40;75.20;;;;;;5132263;27;20478;-69
2021/10/27 16:15:57;;;;;;;25.90;24.00;;;14.40;75.50;;;;;;5120577;27;20836;-69
2021/10/27 16:18:26;;;;;;;24.93;23.53;;;14.30;75.70;;;;;;5119103;27;20458;-68
2021/10/27 16:20:54;;;;;;;24.30;22.83;;;14.20;75.90;;;;;;5118743;27;20461;-69
2021/10/27 16:23:22;;;;;;;25.53;24.03;;;14.10;76.20;;;;;;5123456;27;20520;-69
2021/10/27 16:25:51;;;;;;;26.60;24.53;;;14.00;76.40;;;;;;5128187;27;20877;-69
2021/10/27 16:28:19;;;;;;;32.70;30.37;;;13.90;77.10;;;;;;5136082;27;20455;-69
2021/10/27 16:30:47;;;;;;;47.03;42.00;;;13.80;77.40;;;;;;5127455;27;20928;-72
2021/10/27 16:33:18;;;;;;;66.87;51.20;;;13.80;77.70;;;;;;5121982;27;20489;-71
2021/10/27 16:35:45;;;;;;;34.93;32.07;;;13.70;78.10;;;;;;5115646;27;20647;-71
2021/10/27 16:38:12;;;;;;;29.20;26.90;;;13.50;78.60;;;;;;5128097;27;20457;-68
2021/10/27 16:40:39;;;;;;;33.70;30.73;;;13.50;78.90;;;;;;5135474;27;20547;-69
2021/10/27 16:43:06;;;;;;;28.63;26.03;;;13.30;79.30;;;;;;5129753;27;20471;-72